Time;durP1;ratioP1;P1;durP2;ratioP2;P2;SDS_P1;SDS_P2;PMS_P1;PMS_P2;Temp;Humidity;BMP_temperature;BMP_pressure;BME280_temperature;BME280_humidity;BME280_pressure;Samples;Min_cycle;Max_cycle;Signal;HPM_P1;HPM_P2
2023/06/24 00:01:49;;;;;;;15.30;6.77;;;16.00;1.00;;;;;;4987827;28;20879;-79
2023/06/24 00:04:49;;;;;;;7.40;5.83;;;16.00;1.00;;;;;;4996844;28;20453;-79
2023/06/24 00:07:26;;;;;;;8.03;5.70;;;16.00;1.00;;;;;;5000096;28;20418;-79
2023/06/24 00:09:55;;;;;;;7.90;6.10;;;16.00;1.00;;;;;;4996377;28;20432;-74
2023/06/24 00:12:21;;;;;;;10.57;6.00;;;15.90;1.00;;;;;;5001824;28;20468;-74
2023/06/24 00:14:48;;;;;;;7.97;5.63;;;15.90;1.00;;;;;;5016255;28;20468;-74
2023/06/24 00:17:16;;;;;;;9.60;6.43;;;15.90;1.00;;;;;;5010519;28;20749;-74
2023/06/24 00:19:43;;;;;;;6.70;5.50;;;16.00;1.00;;;;;;4996819;28;20921;-74
2023/06/24 00:22:09;;;;;;;8.43;6.10;;;15.80;1.00;;;;;;5015306;28;20437;-74
2023/06/24 00:24:35;;;;;;;10.07;6.47;;;15.80;1.00;;;;;;5001793;28;20500;-74
2023/06/24 00:27:01;;;;;;;8.27;5.93;;;15.90;1.00;;;;;;5009842;28;20538;-74
2023/06/24 00:29:26;;;;;;;18.30;6.77;;;15.80;1.00;;;;;;4996123;28;20179;-74
2023/06/24 00:31:55;;;;;;;7.13;5.60;;;15.80;1.00;;;;;;5004333;28;20261;-74
2023/06/24 00:34:25;;;;;;;9.30;6.40;;;15.70;1.00;;;;;;5009141;28;20595;-74
2023/06/24 00:36:51;;;;;;;11.70;7.30;;;15.70;1.00;;;;;;5002282;28;20833;-73
2023/06/24 00:39:16;;;;;;;8.90;6.70;;;15.70;1.00;;;;;;4998615;28;20432;-74
2023/06/24 00:41:43;;;;;;;12.20;6.50;;;15.70;1.00;;;;;;5007345;28;20213;-74
2023/06/24 00:44:09;;;;;;;9.63;6.60;;;15.60;1.00;;;;;;4995972;28;20221;-74
2023/06/24 00:46:35;;;;;;;7.17;5.60;;;15.60;1.00;;;;;;4996320;28;20397;-74
2023/06/24 00:49:02;;;;;;;9.70;6.40;;;15.50;1.00;;;;;;5004358;28;20182;-74
2023/06/24 00:51:32;;;;;;;10.10;6.70;;;15.60;1.00;;;;;;5006975;28;20416;-74
2023/06/24 00:53:58;;;;;;;11.10;7.17;;;15.50;1.00;;;;;;4996483;28;20395;-74
2023/06/24 00:56:49;;;;;;;8.53;6.33;;;15.50;1.00;;;;;;4996198;28;20697;-74
2023/06/24 00:59:19;;;;;;;10.63;7.37;;;15.50;1.00;;;;;;4995149;28;20377;-74
2023/06/24 01:01:46;;;;;;;12.90;7.60;;;15.50;1.00;;;;;;4996034;28;20399;-74
2023/06/24 01:04:13;;;;;;;7.37;6.13;;;15.40;1.00;;;;;;5008221;28;20516;-74
2023/06/24 01:06:43;;;;;;;10.40;6.90;;;15.50;1.00;;;;;;5009125;28;20418;-74
2023/06/24 01:09:20;;;;;;;13.63;7.10;;;15.30;1.00;;;;;;5003263;28;20461;-79
2023/06/24 01:15:43;;;;;;;11.47;7.00;;;15.30;1.00;;;;;;4995511;28;20482;-79
2023/06/24 01:18:46;;;;;;;8.27;6.40;;;15.20;1.00;;;;;;5000508;28;20493;-79
2023/06/24 01:21:49;;;;;;;10.00;6.77;;;15.20;1.00;;;;;;5006562;28;20426;-79
2023/06/24 01:24:37;;;;;;;31.13;6.97;;;15.10;1.00;;;;;;4993583;28;20553;-74
2023/06/24 01:27:25;;;;;;;9.20;6.73;;;15.20;1.00;;;;;;4932537;29;20483;-74
2023/06/24 01:30:11;;;;;;;9.90;6.20;;;15.10;1.00;;;;;;4919149;29;20420;-74
2023/06/24 01:32:52;;;;;;;13.57;7.43;;;15.20;1.00;;;;;;4915133;29;20577;-74
2023/06/24 01:35:25;;;;;;;10.90;6.93;;;15.10;1.00;;;;;;4916168;29;20419;-74
2023/06/24 01:37:52;;;;;;;10.13;7.17;;;15.10;1.00;;;;;;4916154;29;20490;-74
2023/06/24 01:40:46;;;;;;;10.73;6.90;;;15.10;1.00;;;;;;4935632;29;20374;-79
2023/06/24 01:43:14;;;;;;;11.70;7.67;;;15.00;1.00;;;;;;4935170;29;20442;-79
2023/06/24 01:46:31;;;;;;;11.50;7.60;;;15.00;1.00;;;;;;4919504;29;20477;-79
2023/06/24 01:49:15;;;;;;;9.17;6.70;;;15.00;1.00;;;;;;4915684;29;20507;-79
2023/06/24 01:58:24;;;;;;;9.83;6.80;;;15.00;1.00;;;;;;4896958;29;20382;-78
2023/06/24 02:04:20;;;;;;;10.67;7.60;;;14.90;1.00;;;;;;4951859;28;20707;-79
2023/06/24 02:07:08;;;;;;;12.33;7.17;;;14.80;1.00;;;;;;4995410;28;20375;-79
2023/06/24 02:09:39;;;;;;;11.27;7.60;;;14.80;1.00;;;;;;4995137;28;20385;-74
2023/06/24 02:12:09;;;;;;;15.47;8.10;;;14.80;1.00;;;;;;4994860;28;20378;-74
2023/06/24 02:14:43;;;;;;;10.27;7.50;;;14.80;1.00;;;;;;5002255;28;20815;-74
2023/06/24 02:17:14;;;;;;;11.27;7.83;;;14.80;1.00;;;;;;5000852;28;20981;-74
2023/06/24 02:19:41;;;;;;;11.27;8.00;;;14.80;1.00;;;;;;4998742;28;20440;-74
2023/06/24 02:22:09;;;;;;;15.63;7.57;;;14.70;1.00;;;;;;5007854;28;20425;-74
2023/06/24 02:24:39;;;;;;;12.20;7.30;;;14.70;1.00;;;;;;4994591;28;20448;-78
2023/06/24 02:27:06;;;;;;;12.50;7.73;;;14.60;1.00;;;;;;5012411;28;20957;-74
2023/06/24 02:29:39;;;;;;;10.33;7.77;;;14.70;1.00;;;;;;5002730;28;20518;-74
2023/06/24 02:32:05;;;;;;;11.27;7.03;;;14.70;1.00;;;;;;4994314;28;20430;-74
2023/06/24 02:34:37;;;;;;;9.20;7.33;;;14.70;1.00;;;;;;4993123;28;20452;-74
2023/06/24 02:37:07;;;;;;;11.80;8.13;;;14.70;1.00;;;;;;4991937;28;20419;-74
2023/06/24 02:39:33;;;;;;;14.13;8.20;;;14.70;1.00;;;;;;4993960;28;20428;-74
2023/06/24 02:41:58;;;;;;;12.03;7.77;;;14.70;1.00;;;;;;5001733;28;20896;-74
2023/06/24 02:44:24;;;;;;;13.37;7.57;;;14.60;1.00;;;;;;5000699;28;20217;-74
2023/06/24 02:46:51;;;;;;;12.70;7.40;;;14.70;1.00;;;;;;4998734;28;20260;-74
2023/06/24 02:49:18;;;;;;;11.80;7.60;;;14.60;1.00;;;;;;4994863;28;20184;-74
2023/06/24 02:51:44;;;;;;;12.00;7.60;;;14.60;1.00;;;;;;5004388;28;20787;-74
2023/06/24 02:54:19;;;;;;;12.37;7.23;;;14.60;1.00;;;;;;5009606;28;20402;-83
2023/06/24 03:00:02;;;;;;;10.33;7.20;;;14.40;1.00;;;;;;5007534;28;20403;-84
2023/06/24 03:02:29;;;;;;;12.43;8.60;;;14.40;1.00;;;;;;4981594;28;20215;-84
2023/06/24 03:05:08;;;;;;;10.97;7.30;;;14.40;1.00;;;;;;5003859;28;20955;-84
2023/06/24 03:07:49;;;;;;;13.50;8.57;;;14.40;1.00;;;;;;4996960;28;20410;-84
2023/06/24 03:10:15;;;;;;;10.20;7.70;;;14.40;1.00;;;;;;5007589;28;20497;-84
2023/06/24 03:12:49;;;;;;;11.40;7.00;;;14.40;1.00;;;;;;5000235;28;20511;-85
2023/06/24 03:15:49;;;;;;;14.70;8.50;;;14.30;1.00;;;;;;4999615;28;20174;-84
2023/06/24 03:18:49;;;;;;;10.67;6.80;;;14.30;1.00;;;;;;4997421;28;20411;-84
2023/06/24 03:21:15;;;;;;;12.27;7.13;;;14.30;1.00;;;;;;5005352;28;20390;-85
2023/06/24 03:23:49;;;;;;;13.53;7.70;;;14.40;1.00;;;;;;4999118;28;20455;-84
2023/06/24 03:26:55;;;;;;;13.47;7.73;;;14.40;1.00;;;;;;5013961;28;20412;-84
2023/06/24 03:29:37;;;;;;;12.70;7.70;;;14.40;1.00;;;;;;4989454;28;20399;-84
2023/06/24 03:32:19;;;;;;;11.73;7.70;;;14.40;1.00;;;;;;4991212;28;20440;-84
2023/06/24 03:34:49;;;;;;;18.97;8.40;;;14.80;1.00;;;;;;5006941;28;20416;-84
2023/06/24 03:37:49;;;;;;;12.03;7.83;;;14.30;1.00;;;;;;5002738;28;20470;-84
2023/06/24 03:40:23;;;;;;;11.80;8.43;;;14.30;1.00;;;;;;5006718;28;20960;-84
2023/06/24 03:42:49;;;;;;;10.90;7.40;;;14.30;1.00;;;;;;4993847;28;20481;-83
2023/06/24 03:45:49;;;;;;;10.47;7.53;;;15.10;1.00;;;;;;4997857;28;20502;-84
2023/06/24 03:51:43;;;;;;;10.97;7.70;;;14.40;1.00;;;;;;5001828;28;20408;-84
2023/06/24 03:54:19;;;;;;;11.60;7.43;;;15.10;1.00;;;;;;4995974;28;20422;-84
2023/06/24 03:56:49;;;;;;;13.23;8.00;;;14.50;1.00;;;;;;5008085;28;20977;-84
2023/06/24 03:59:20;;;;;;;13.33;8.43;;;14.50;1.00;;;;;;4986372;28;20495;-84
2023/06/24 04:02:19;;;;;;;11.40;8.20;;;14.60;1.00;;;;;;4980306;28;20420;-83
2023/06/24 04:04:50;;;;;;;14.53;8.40;;;14.50;1.00;;;;;;4996662;28;20435;-84
2023/06/24 04:07:27;;;;;;;9.20;7.30;;;14.90;1.00;;;;;;4995891;28;20438;-84
2023/06/24 04:10:19;;;;;;;11.50;8.47;;;14.50;1.00;;;;;;5014215;28;20388;-84
2023/06/24 04:12:49;;;;;;;12.47;8.70;;;14.50;1.00;;;;;;5013024;28;20979;-84
2023/06/24 04:15:49;;;;;;;11.63;8.00;;;14.50;1.00;;;;;;5016438;28;20402;-84
2023/06/24 04:18:31;;;;;;;9.90;7.07;;;14.60;1.00;;;;;;5004343;28;20527;-84
2023/06/24 04:21:19;;;;;;;10.83;7.80;;;14.60;1.00;;;;;;4980617;28;20432;-84
2023/06/24 04:23:49;;;;;;;9.87;7.93;;;14.70;1.00;;;;;;5006274;28;20794;-84
2023/06/24 04:26:19;;;;;;;11.10;8.03;;;14.80;1.00;;;;;;4997077;28;20424;-84
2023/06/24 04:28:49;;;;;;;11.03;7.93;;;15.00;1.00;;;;;;4995500;28;20440;-84
2023/06/24 04:31:19;;;;;;;14.13;8.03;;;14.90;1.00;;;;;;5008677;28;20424;-84
2023/06/24 04:33:49;;;;;;;12.10;7.50;;;15.00;1.00;;;;;;5002948;28;20823;-84
2023/06/24 04:36:19;;;;;;;12.33;7.57;;;15.10;1.00;;;;;;4982666;28;21033;-84
2023/06/24 04:38:45;;;;;;;11.00;8.10;;;15.20;1.00;;;;;;5008610;28;20931;-84
2023/06/24 04:41:13;;;;;;;43.97;25.80;;;15.20;1.00;;;;;;5002932;28;20419;-84
2023/06/24 04:43:49;;;;;;;9.70;7.10;;;15.30;1.00;;;;;;5017963;28;20547;-84
2023/06/24 04:46:16;;;;;;;10.40;8.10;;;15.40;1.00;;;;;;5021860;28;20563;-84
2023/06/24 04:48:49;;;;;;;10.90;7.93;;;15.50;1.00;;;;;;5008299;28;20421;-85
2023/06/24 04:51:19;;;;;;;10.83;8.07;;;15.60;1.00;;;;;;5007157;28;20997;-84
2023/06/24 04:53:49;;;;;;;13.53;8.60;;;15.70;1.00;;;;;;5001287;28;20805;-84
2023/06/24 04:56:19;;;;;;;13.43;8.60;;;15.70;1.00;;;;;;5004384;28;20929;-84
2023/06/24 04:58:49;;;;;;;12.47;8.17;;;15.80;1.00;;;;;;5001156;28;20431;-84
2023/06/24 05:01:19;;;;;;;15.80;8.30;;;15.90;1.00;;;;;;5017638;28;20462;-84
2023/06/24 05:04:19;;;;;;;11.27;8.80;;;16.00;1.00;;;;;;4994016;28;20487;-84
2023/06/24 05:07:01;;;;;;;23.07;8.70;;;;;;;;;;5008063;28;20434;-84
2023/06/24 05:09:50;;;;;;;13.13;8.73;;;16.30;1.00;;;;;;5001078;28;21001;-85
2023/06/24 05:12:49;;;;;;;13.67;9.30;;;16.40;1.00;;;;;;4993595;28;20445;-84
2023/06/24 05:15:49;;;;;;;12.90;9.53;;;16.60;1.00;;;;;;5002105;28;20445;-84
2023/06/24 05:21:37;;;;;;;15.10;10.63;;;16.90;1.00;;;;;;4984088;28;20472;-84
2023/06/24 05:24:19;;;;;;;13.20;9.00;;;17.00;1.00;;;;;;5007942;28;20475;-85
2023/06/24 05:26:50;;;;;;;11.63;8.90;;;17.10;1.00;;;;;;4995049;28;20411;-84
2023/06/24 05:29:19;;;;;;;14.67;10.00;;;17.30;1.00;;;;;;5007786;28;20438;-85
2023/06/24 05:32:03;;;;;;;14.47;9.53;;;17.30;1.00;;;;;;5001257;28;20501;-84
2023/06/24 05:37:50;;;;;;;11.03;8.57;;;17.60;1.00;;;;;;4990041;28;20916;-84
2023/06/24 05:47:00;;;;;;;17.43;8.57;;;18.00;1.00;;;;;;5014792;28;20441;-85
2023/06/24 05:52:47;;;;;;;11.53;8.93;;;18.20;1.00;;;;;;4994249;28;20287;-85
2023/06/24 05:58:35;;;;;;;11.33;8.03;;;18.50;1.00;;;;;;4994490;28;20271;-82
2023/06/24 06:01:04;;;;;;;12.23;8.80;;;18.60;1.00;;;;;;4995313;28;20518;-82
2023/06/24 06:03:32;;;;;;;12.23;8.63;;;;;;;;;;5009306;28;20213;-82
2023/06/24 06:05:58;;;;;;;14.20;8.83;;;;;;;;;;4993384;28;20425;-82
2023/06/24 06:08:24;;;;;;;13.93;8.17;;;19.10;1.00;;;;;;5007717;28;20452;-82
2023/06/24 06:10:57;;;;;;;10.37;8.20;;;19.10;1.00;;;;;;5004978;28;20447;-82
2023/06/24 06:13:23;;;;;;;13.40;8.27;;;19.20;1.00;;;;;;4993445;28;20443;-81
2023/06/24 06:19:11;;;;;;;12.63;7.63;;;19.50;1.00;;;;;;5009198;28;20282;-83
2023/06/24 06:21:38;;;;;;;14.33;9.10;;;19.50;1.00;;;;;;5029210;28;20475;-82
2023/06/24 06:24:04;;;;;;;12.80;8.83;;;19.60;1.00;;;;;;5028256;28;20878;-82
2023/06/24 06:26:46;;;;;;;19.57;7.90;;;19.60;1.00;;;;;;4995208;28;20533;-82
2023/06/24 06:30:01;;;;;;;12.43;8.70;;;19.80;1.00;;;;;;4996313;28;20491;-82
2023/06/24 06:33:07;;;;;;;13.37;7.87;;;20.00;1.00;;;;;;4998641;28;20524;-81
2023/06/24 06:45:38;;;;;;;13.27;8.40;;;20.50;1.00;;;;;;5006743;28;20425;-82
2023/06/24 06:51:26;;;;;;;14.50;6.70;;;20.80;1.00;;;;;;5000804;28;20259;-74
2023/06/24 06:53:55;;;;;;;11.67;7.40;;;21.00;1.00;;;;;;4997608;28;20968;-75
2023/06/24 06:56:25;;;;;;;24.13;9.30;;;21.10;1.00;;;;;;5005283;28;20489;-75
2023/06/24 06:58:55;;;;;;;16.77;8.10;;;21.20;1.00;;;;;;4998467;28;20805;-74
2023/06/24 07:01:25;;;;;;;19.60;7.00;;;21.40;1.00;;;;;;5008825;28;20936;-75
2023/06/24 07:03:51;;;;;;;9.40;6.93;;;21.50;1.00;;;;;;4995230;28;20558;-74
2023/06/24 07:06:19;;;;;;;9.73;7.20;;;21.60;1.00;;;;;;4993454;28;20544;-75
2023/06/24 07:08:45;;;;;;;14.90;7.00;;;21.80;1.00;;;;;;4998861;28;20266;-75
2023/06/24 07:11:11;;;;;;;8.53;6.10;;;21.90;1.00;;;;;;4994203;28;20471;-75
2023/06/24 07:13:44;;;;;;;1094.43;692.10;;;22.00;1.00;;;;;;5001529;28;20194;-79
2023/06/24 07:16:20;;;;;;;931.63;500.93;;;22.10;1.00;;;;;;4988594;28;20193;-79
2023/06/24 07:18:49;;;;;;;889.93;438.13;;;22.20;1.00;;;;;;5004151;28;20971;-79
2023/06/24 07:21:31;;;;;;;297.23;183.17;;;22.30;1.00;;;;;;5000129;28;20507;-79
2023/06/24 07:24:19;;;;;;;14.03;6.80;;;22.50;1.00;;;;;;4987329;28;20454;-79
2023/06/24 07:26:55;;;;;;;8.93;7.17;;;22.60;1.00;;;;;;4993804;28;20406;-79
2023/06/24 07:29:43;;;;;;;10.60;6.53;;;22.70;1.00;;;;;;5004078;28;20435;-79
2023/06/24 07:32:08;;;;;;;8.97;5.90;;;22.90;1.00;;;;;;5003401;28;20465;-79
2023/06/24 07:34:34;;;;;;;6.60;5.50;;;22.90;1.00;;;;;;5004500;28;20410;-79
2023/06/24 07:37:31;;;;;;;8.13;6.47;;;23.00;1.00;;;;;;5010761;28;20184;-79
2023/06/24 07:39:57;;;;;;;7.77;5.97;;;23.20;1.00;;;;;;5007578;28;20183;-79
2023/06/24 07:42:41;;;;;;;10.90;6.90;;;23.30;1.00;;;;;;5007109;28;20425;-79
2023/06/24 07:45:07;;;;;;;7.60;6.17;;;23.30;1.00;;;;;;4998401;28;20209;-75
2023/06/24 07:47:33;;;;;;;8.37;6.23;;;23.40;1.00;;;;;;5006536;28;21032;-74
2023/06/24 07:49:58;;;;;;;8.77;5.97;;;23.50;1.00;;;;;;4994669;28;20505;-75
2023/06/24 07:52:24;;;;;;;7.70;6.03;;;23.60;1.00;;;;;;5009189;28;20259;-75
2023/06/24 07:54:49;;;;;;;8.60;6.23;;;23.70;1.00;;;;;;4997131;28;20662;-75
2023/06/24 07:57:15;;;;;;;7.83;6.10;;;23.70;1.00;;;;;;5008701;28;20187;-74
2023/06/24 07:59:43;;;;;;;7.23;5.90;;;23.70;1.00;;;;;;4997767;28;20188;-75
2023/06/24 08:02:13;;;;;;;8.27;6.30;;;23.80;1.00;;;;;;4997289;28;20193;-75
2023/06/24 08:04:43;;;;;;;10.10;6.20;;;24.00;1.00;;;;;;5010015;28;20454;-75
2023/06/24 08:07:09;;;;;;;8.03;5.83;;;24.20;1.00;;;;;;4996902;28;20440;-75
2023/06/24 08:09:34;;;;;;;6.10;5.50;;;24.20;1.00;;;;;;4996326;28;21034;-75
2023/06/24 08:12:00;;;;;;;8.93;6.27;;;24.10;1.00;;;;;;4997223;28;20179;-75
2023/06/24 08:14:37;;;;;;;7.93;5.60;;;24.20;1.00;;;;;;5002865;28;20198;-79
2023/06/24 08:17:13;;;;;;;7.47;6.20;;;24.20;1.00;;;;;;5002394;28;20726;-79
2023/06/24 08:19:43;;;;;;;5.90;5.20;;;24.40;1.00;;;;;;5005376;28;20433;-80
2023/06/24 08:22:55;;;;;;;12.70;5.80;;;24.60;1.00;;;;;;5000273;28;20415;-79
2023/06/24 08:25:26;;;;;;;5.80;4.83;;;24.80;1.00;;;;;;5011074;28;20501;-79
2023/06/24 08:28:07;;;;;;;10.10;6.20;;;24.90;1.00;;;;;;5002925;28;20434;-79
2023/06/24 08:30:49;;;;;;;8.70;6.13;;;24.90;1.00;;;;;;5004904;28;20417;-79
2023/06/24 08:33:19;;;;;;;8.13;5.60;;;25.00;1.00;;;;;;4998752;28;20420;-79
2023/06/24 08:35:51;;;;;;;5.73;5.20;;;25.00;1.00;;;;;;5001420;28;20917;-81
2023/06/24 08:38:19;;;;;;;7.60;5.07;;;25.00;1.00;;;;;;4999432;28;20427;-80
2023/06/24 08:41:37;;;;;;;6.30;5.23;;;24.90;1.00;;;;;;4993429;28;20489;-83
2023/06/24 08:44:19;;;;;;;5.93;5.13;;;24.90;1.00;;;;;;5005458;28;20482;-85
2023/06/24 08:47:01;;;;;;;7.33;5.00;;;25.10;1.00;;;;;;4993617;28;20927;-85
2023/06/24 08:49:32;;;;;;;6.90;5.30;;;25.30;1.00;;;;;;4985371;28;20947;-83
2023/06/24 08:52:15;;;;;;;5.57;4.73;;;25.60;1.00;;;;;;4996033;28;20432;-84
2023/06/24 09:01:27;;;;;;;7.73;4.80;;;25.90;1.00;;;;;;4991865;28;20500;-88
2023/06/24 09:04:13;;;;;;;5.03;4.10;;;26.00;1.00;;;;;;5004118;28;20470;-88
2023/06/24 09:06:38;;;;;;;5.70;4.50;;;26.00;1.00;;;;;;5007460;28;20427;-88
2023/06/24 09:12:55;;;;;;;9.43;5.40;;;25.90;1.00;;;;;;4996022;28;20568;-87
2023/06/24 09:19:19;;;;;;;6.73;5.67;;;26.00;1.00;;;;;;5000295;28;20439;-89
2023/06/24 09:21:46;;;;;;;6.33;5.27;;;26.00;1.00;;;;;;4994975;28;20524;-88
2023/06/24 09:24:13;;;;;;;7.00;5.43;;;26.30;1.00;;;;;;5004821;28;20975;-87
2023/06/24 09:33:22;;;;;;;8.60;7.00;;;26.60;1.00;;;;;;4994605;28;20451;-87
2023/06/24 09:39:49;;;;;;;10.87;5.70;;;26.90;1.00;;;;;;5001503;28;20210;-88
2023/06/24 09:42:32;;;;;;;7.50;4.57;;;27.10;1.00;;;;;;4998001;28;20436;-88
2023/06/24 09:45:13;;;;;;;15.07;5.40;;;27.30;1.00;;;;;;4983322;28;20472;-84
2023/06/24 09:48:07;;;;;;;9.53;4.17;;;27.30;1.00;;;;;;4996473;28;20440;-83
2023/06/24 09:50:44;;;;;;;7.40;5.13;;;27.40;1.00;;;;;;5017556;28;20449;-84
2023/06/24 09:53:14;;;;;;;8.73;4.47;;;27.30;1.00;;;;;;4998586;28;20439;-83
2023/06/24 09:55:46;;;;;;;4.97;4.20;;;27.10;1.00;;;;;;4996960;28;20436;-84
2023/06/24 09:58:26;;;;;;;5.20;4.47;;;27.10;1.00;;;;;;4994734;28;20488;-84
2023/06/24 10:01:04;;;;;;;7.37;4.77;;;27.10;1.00;;;;;;4994242;28;20413;-84
2023/06/24 10:03:35;;;;;;;5.20;4.70;;;27.10;1.00;;;;;;4994644;28;20474;-84
2023/06/24 10:06:02;;;;;;;5.60;5.00;;;27.30;1.00;;;;;;5005349;28;20441;-84
2023/06/24 10:08:37;;;;;;;7.37;5.43;;;27.60;1.00;;;;;;5001081;28;20416;-84
2023/06/24 10:11:03;;;;;;;10.27;5.53;;;27.70;1.00;;;;;;4995277;28;20449;-84
2023/06/24 10:13:31;;;;;;;11.27;4.70;;;27.80;1.00;;;;;;5003494;28;20517;-84
2023/06/24 10:16:07;;;;;;;14.03;5.50;;;27.90;1.00;;;;;;5001191;28;20198;-83
2023/06/24 10:18:44;;;;;;;6.63;4.83;;;27.80;1.00;;;;;;5006326;28;20440;-84
2023/06/24 10:21:47;;;;;;;9.60;4.90;;;27.50;1.00;;;;;;5005147;28;20544;-84
2023/06/24 10:24:33;;;;;;;6.33;4.87;;;27.50;1.00;;;;;;4991250;28;20463;-84
2023/06/24 10:27:03;;;;;;;5.33;4.77;;;27.50;1.00;;;;;;4996296;28;20425;-84
2023/06/24 10:29:38;;;;;;;8.40;4.40;;;27.60;1.00;;;;;;4992404;28;20946;-83
2023/06/24 10:32:22;;;;;;;4.70;4.30;;;27.90;1.00;;;;;;4993935;28;20423;-84
2023/06/24 10:35:34;;;;;;;10.10;4.67;;;28.10;1.00;;;;;;5001963;28;20446;-83
2023/06/24 10:38:31;;;;;;;7.70;4.60;;;28.10;1.00;;;;;;4991959;28;20810;-84
2023/06/24 10:41:19;;;;;;;5.33;4.83;;;27.80;1.00;;;;;;4999427;28;20489;-84
2023/06/24 10:44:19;;;;;;;4.60;4.03;;;28.10;1.00;;;;;;5006462;28;20471;-84
2023/06/24 10:50:08;;;;;;;8.77;4.47;;;28.20;1.00;;;;;;4987792;28;21235;-86
2023/06/24 10:59:46;;;;;;;6.10;4.33;;;27.90;1.00;;;;;;4988587;28;20450;-87
2023/06/24 11:02:55;;;;;;;7.60;4.30;;;27.90;1.00;;;;;;5018833;28;21008;-87
2023/06/24 11:09:07;;;;;;;8.80;3.60;;;27.70;1.00;;;;;;4996043;28;20442;-88
2023/06/24 11:11:37;;;;;;;4.10;3.70;;;27.80;1.00;;;;;;4984743;28;20522;-88
2023/06/24 11:14:16;;;;;;;5.90;4.90;;;28.10;1.00;;;;;;5005602;28;20450;-87
2023/06/24 11:16:50;;;;;;;5.30;4.23;;;28.40;1.00;;;;;;4996715;28;20457;-84
2023/06/24 11:22:44;;;;;;;5.00;4.10;;;28.90;1.00;;;;;;4978282;28;20476;-84
2023/06/24 11:26:01;;;;;;;4.47;4.00;;;29.30;1.00;;;;;;5012877;28;20490;-84
2023/06/24 11:28:43;;;;;;;6.07;4.27;;;29.50;1.00;;;;;;5003135;28;20436;-83
2023/06/24 11:31:10;;;;;;;7.50;4.03;;;29.90;1.00;;;;;;4995001;28;20452;-84
2023/06/24 11:33:49;;;;;;;6.20;4.13;;;29.80;1.00;;;;;;5024239;28;20436;-84
2023/06/24 11:36:20;;;;;;;4.00;3.60;;;29.80;1.00;;;;;;4979153;28;20397;-84
2023/06/24 11:42:08;;;;;;;4.30;3.67;;;30.00;1.00;;;;;;5017145;28;20376;-83
2023/06/24 11:44:59;;;;;;;5.33;4.10;;;30.00;1.00;;;;;;5015852;28;20503;-84
2023/06/24 11:47:33;;;;;;;5.90;3.83;;;30.30;1.00;;;;;;4993641;28;20437;-83
2023/06/24 11:50:25;;;;;;;9.13;3.40;;;30.60;1.00;;;;;;5014038;28;20829;-84
2023/06/24 11:52:52;;;;;;;6.70;3.33;;;30.70;1.00;;;;;;4985873;28;20472;-84
2023/06/24 11:55:31;;;;;;;3.70;3.30;;;30.90;1.00;;;;;;5008161;28;20428;-84
2023/06/24 11:58:19;;;;;;;4.83;3.57;;;31.00;1.00;;;;;;4987177;28;20416;-84
2023/06/24 12:00:51;;;;;;;7.90;4.33;;;31.20;1.00;;;;;;4990255;28;20424;-83
2023/06/24 12:03:33;;;;;;;4.53;3.73;;;31.40;1.00;;;;;;5006996;28;20867;-84
2023/06/24 12:06:01;;;;;;;5.40;4.00;;;31.50;1.00;;;;;;5012245;28;20510;-84
2023/06/24 12:08:43;;;;;;;3.63;3.33;;;31.60;1.00;;;;;;5016456;28;20785;-84
2023/06/24 12:11:19;;;;;;;4.40;4.00;;;31.80;1.00;;;;;;5015927;28;20396;-84
2023/06/24 12:13:45;;;;;;;5.80;4.17;;;32.20;1.00;;;;;;5014550;28;20837;-84
2023/06/24 12:16:55;;;;;;;4.20;3.57;;;31.90;1.00;;;;;;4999457;28;20509;-88
2023/06/24 12:22:48;;;;;;;4.77;3.83;;;32.10;1.00;;;;;;4994814;28;21080;-88
2023/06/24 12:25:55;;;;;;;3.80;3.50;;;32.90;1.00;;;;;;5002816;28;20460;-89
2023/06/24 12:28:37;;;;;;;6.80;3.90;;;33.10;1.00;;;;;;5012334;28;20436;-88
2023/06/24 12:31:03;;;;;;;4.87;4.30;;;33.40;1.00;;;;;;4993544;28;20414;-84
2023/06/24 12:33:43;;;;;;;5.60;4.07;;;33.30;1.00;;;;;;5002810;28;20474;-84
2023/06/24 12:36:21;;;;;;;4.83;4.20;;;33.40;1.00;;;;;;5002332;28;20455;-84
2023/06/24 12:38:46;;;;;;;5.13;4.23;;;33.50;1.00;;;;;;5014664;28;20781;-83
2023/06/24 12:41:13;;;;;;;5.90;4.07;;;33.50;1.00;;;;;;5005947;28;20470;-84
2023/06/24 12:43:49;;;;;;;4.27;3.87;;;33.60;1.00;;;;;;4993988;28;20209;-84
2023/06/24 12:49:50;;;;;;;4.27;3.90;;;33.80;1.00;;;;;;5005301;28;20444;-89
2023/06/24 12:55:50;;;;;;;6.20;3.90;;;33.30;1.00;;;;;;5001956;28;20439;-88
2023/06/24 13:01:38;;;;;;;5.57;3.80;;;33.20;1.00;;;;;;5000298;28;20431;-84
2023/06/24 13:04:25;;;;;;;4.27;3.97;;;33.10;1.00;;;;;;5015456;28;21104;-84
2023/06/24 13:07:09;;;;;;;6.00;4.40;;;32.90;1.00;;;;;;5008740;28;20228;-84
2023/06/24 13:09:43;;;;;;;3.87;3.53;;;32.90;1.00;;;;;;5013221;28;20416;-84
2023/06/24 13:12:31;;;;;;;4.40;4.00;;;32.90;1.00;;;;;;4995765;28;20424;-84
2023/06/24 13:15:06;;;;;;;4.07;3.77;;;33.10;1.00;;;;;;5011034;28;20434;-83
2023/06/24 13:17:43;;;;;;;4.30;3.83;;;33.20;1.00;;;;;;4996755;28;20392;-84
2023/06/24 13:20:19;;;;;;;4.20;3.80;;;33.10;1.00;;;;;;5010853;28;20873;-84
2023/06/24 13:22:49;;;;;;;4.20;3.73;;;32.80;1.00;;;;;;4994988;28;20424;-84
2023/06/24 13:25:15;;;;;;;5.20;4.20;;;32.70;1.00;;;;;;4999713;28;20460;-84
2023/06/24 13:27:44;;;;;;;6.50;4.50;;;32.60;1.00;;;;;;5014283;28;20428;-84
2023/06/24 13:30:11;;;;;;;7.17;4.17;;;32.50;1.00;;;;;;4995511;28;20190;-84
2023/06/24 13:32:37;;;;;;;3.87;3.50;;;32.60;1.00;;;;;;4998020;28;20456;-84
2023/06/24 13:35:08;;;;;;;5.13;3.93;;;32.30;1.00;;;;;;4995040;28;20799;-84
2023/06/24 13:37:38;;;;;;;4.73;4.10;;;32.40;1.00;;;;;;5000569;28;20443;-84
2023/06/24 13:43:47;;;;;;;4.40;4.00;;;32.30;1.00;;;;;;4971127;28;20496;-83
2023/06/24 13:46:13;;;;;;;4.67;4.07;;;32.20;1.00;;;;;;4994495;28;20421;-84
2023/06/24 13:48:50;;;;;;;4.30;4.00;;;32.20;1.00;;;;;;4994978;28;20934;-84
2023/06/24 13:51:17;;;;;;;4.70;4.30;;;32.20;1.00;;;;;;4994265;28;20192;-84
2023/06/24 13:53:43;;;;;;;4.20;3.90;;;32.20;1.00;;;;;;4992307;28;20440;-84
2023/06/24 13:56:49;;;;;;;6.30;4.10;;;32.10;1.00;;;;;;5001572;28;20435;-84
2023/06/24 13:59:14;;;;;;;4.77;4.37;;;32.10;1.00;;;;;;5011056;28;20428;-84
2023/06/24 14:01:49;;;;;;;4.93;4.10;;;32.20;1.00;;;;;;5001138;28;20416;-88
2023/06/24 14:04:49;;;;;;;4.70;3.80;;;32.10;1.00;;;;;;5005645;28;20197;-89
2023/06/24 14:07:19;;;;;;;5.80;4.37;;;32.40;1.00;;;;;;4995777;28;20447;-89
2023/06/24 14:09:49;;;;;;;4.97;4.00;;;32.60;1.00;;;;;;5006879;28;20985;-88
2023/06/24 14:12:55;;;;;;;9.00;4.40;;;32.70;1.00;;;;;;4999264;28;20430;-88
2023/06/24 14:15:37;;;;;;;4.40;4.00;;;32.90;1.00;;;;;;4995353;28;20520;-89
2023/06/24 14:18:32;;;;;;;6.40;4.00;;;32.90;1.00;;;;;;5007007;28;20801;-89
2023/06/24 14:21:37;;;;;;;4.60;4.20;;;33.00;1.00;;;;;;4999078;28;20480;-89
2023/06/24 14:27:24;;;;;;;7.13;4.47;;;33.50;1.00;;;;;;4995135;28;20380;-88
2023/06/24 14:33:19;;;;;;;4.20;3.70;;;33.90;1.00;;;;;;4978101;28;20189;-76
2023/06/24 14:35:51;;;;;;;4.40;4.00;;;33.90;1.00;;;;;;4994822;28;20420;-76
2023/06/24 14:38:16;;;;;;;5.30;4.07;;;33.90;1.00;;;;;;5004300;28;20784;-76
2023/06/24 14:40:44;;;;;;;4.60;4.20;;;34.10;1.00;;;;;;4991205;28;20456;-76
2023/06/24 14:43:10;;;;;;;7.33;4.23;;;;;;;;;;4985431;28;20178;-76
2023/06/24 14:45:39;;;;;;;8.30;4.97;;;33.90;1.00;;;;;;4993899;28;20540;-76
2023/06/24 14:48:07;;;;;;;4.37;4.00;;;33.70;1.00;;;;;;5004295;28;20444;-75
2023/06/24 14:50:37;;;;;;;5.27;4.23;;;34.00;1.00;;;;;;5007237;28;20206;-75
2023/06/24 14:53:07;;;;;;;5.67;4.17;;;34.50;1.00;;;;;;4994162;28;20448;-75
2023/06/24 14:55:33;;;;;;;5.00;4.00;;;35.10;1.00;;;;;;4994002;28;20440;-75
2023/06/24 14:57:59;;;;;;;4.53;4.03;;;35.30;1.00;;;;;;4994528;28;20421;-75
2023/06/24 15:00:24;;;;;;;3.70;3.40;;;35.60;1.00;;;;;;4994228;28;20189;-75
2023/06/24 15:02:55;;;;;;;5.50;3.80;;;35.80;1.00;;;;;;4995936;28;20684;-75
2023/06/24 15:05:21;;;;;;;7.40;3.60;;;35.80;1.00;;;;;;4998122;28;20237;-75
2023/06/24 15:07:47;;;;;;;4.43;3.83;;;35.90;1.00;;;;;;4987176;28;20532;-75
2023/06/24 15:10:12;;;;;;;4.67;3.70;;;36.80;1.00;;;;;;5006157;28;20185;-75
2023/06/24 15:12:39;;;;;;;4.30;3.90;;;38.00;1.00;;;;;;4997709;28;20193;-75
2023/06/24 15:15:05;;;;;;;4.30;3.80;;;39.30;1.00;;;;;;4993396;28;20184;-75
2023/06/24 15:17:34;;;;;;;4.17;3.37;;;40.70;1.00;;;;;;5003045;28;20423;-74
2023/06/24 15:20:00;;;;;;;3.40;3.00;;;42.00;1.00;;;;;;5008062;28;20471;-76
2023/06/24 15:22:25;;;;;;;6.27;3.40;;;43.20;1.00;;;;;;4997873;28;20464;-76
2023/06/24 15:24:51;;;;;;;3.20;3.00;;;43.40;1.00;;;;;;4998551;28;20671;-79
2023/06/24 15:27:17;;;;;;;3.40;3.20;;;42.10;1.00;;;;;;5006005;28;20181;-79
2023/06/24 15:29:43;;;;;;;3.83;3.50;;;41.60;1.00;;;;;;4991664;28;20178;-77
2023/06/24 15:32:09;;;;;;;7.33;3.27;;;41.50;1.00;;;;;;4992565;28;20178;-83
2023/06/24 15:34:35;;;;;;;5.60;3.20;;;42.50;1.00;;;;;;4992957;28;20628;-84
2023/06/24 15:37:00;;;;;;;3.47;3.10;;;43.80;1.00;;;;;;4991439;28;20459;-83
2023/06/24 15:39:26;;;;;;;3.03;2.80;;;44.70;1.00;;;;;;4991052;28;20276;-83
2023/06/24 15:41:51;;;;;;;4.40;3.07;;;45.10;1.00;;;;;;4991522;28;20642;-83